Terminal Aerodrome Forecast
Issued by NWS

Current Version | Previous Version | Graphics & Text | Print | Product List | Glossary On
Versions: 1 2 3 4 5 6 7 8 9 10 11 12 13 14 15 16 17 18 19 20 21 22 23 24 25 26 27
000
FTUS41 KILN 150500
TAFLCK
TAF
KLCK 150528Z 1506/1606 VRB04KT P6SM OVC035
     FM150800 VRB04KT 5SM BR OVC025
     FM152000 14007KT P6SM BKN025 OVC250
     FM160000 14005KT P6SM SCT050 BKN100
     FM160300 14004KT P6SM -RA OVC025=

USA.gov is the U.S. government's official web portal to all federal, state and local government web resources and services.